createdAt,value
2019-02-10T00:04:41.998Z,3.3
2019-02-10T00:19:05.336Z,3.6
2019-02-10T00:34:27.859Z,3.4
2019-02-10T00:49:37.439Z,3.1
2019-02-10T01:04:42.829Z,2.9
2019-02-10T01:18:57.204Z,3
2019-02-10T01:33:56.687Z,2.9
2019-02-10T01:49:06.601Z,2.5
2019-02-10T02:04:21.730Z,2.3
2019-02-10T02:19:55.564Z,2.2
2019-02-10T02:34:10.123Z,2.2
2019-02-10T02:49:15.110Z,2.5
2019-02-10T03:04:04.828Z,2.2
2019-02-10T03:19:01.585Z,2.3
2019-02-10T03:34:20.822Z,2.2
2019-02-10T03:49:09.773Z,2.1
2019-02-10T04:04:12.190Z,2.1
2019-02-10T04:19:29.372Z,1.7
2019-02-10T04:34:31.180Z,2
2019-02-10T04:49:46.618Z,1.9
2019-02-10T05:04:54.603Z,1.9
2019-02-10T05:19:57.026Z,1.7
2019-02-10T05:34:42.341Z,1.8
2019-02-10T05:49:25.620Z,1.6
2019-02-10T06:04:21.223Z,1.6
2019-02-10T06:19:17.865Z,1.6
2019-02-10T06:34:08.467Z,1.6
2019-02-10T06:50:02.361Z,1.6
2019-02-10T07:04:12.508Z,1.5
2019-02-10T07:19:23.267Z,1.5
2019-02-10T07:34:48.321Z,1.3
2019-02-10T07:34:48.635Z,1.3
2019-02-10T07:50:01.792Z,1.2
2019-02-10T08:05:09.936Z,1.3
2019-02-10T08:20:00.192Z,1.2
2019-02-10T08:35:01.680Z,1.3
2019-02-10T08:49:51.359Z,1.1
2019-02-10T09:04:35.757Z,1
2019-02-10T09:19:40.553Z,1.1
2019-02-10T09:34:24.724Z,1.3
2019-02-10T09:49:18.506Z,1.6
2019-02-10T10:04:18.993Z,1.6
2019-02-10T10:19:39.135Z,1.7
2019-02-10T10:35:09.926Z,1.8
2019-02-10T10:49:39.290Z,1.7
2019-02-10T11:05:10.249Z,2.2
2019-02-10T11:19:36.713Z,2.5
2019-02-10T11:34:48.064Z,2.3
2019-02-10T11:50:04.372Z,2.2
2019-02-10T12:05:20.689Z,2.2
2019-02-10T12:19:41.204Z,2.1
2019-02-10T12:34:48.533Z,1.9
2019-02-10T12:50:05.603Z,2.2
2019-02-10T13:05:06.069Z,1.8
2019-02-10T13:20:08.020Z,2
2019-02-10T13:35:05.447Z,2.5
2019-02-10T13:49:57.415Z,2.2
2019-02-10T14:05:13.058Z,2.3
2019-02-10T14:20:33.184Z,2.5
2019-02-10T14:34:57.197Z,2.4
2019-02-10T14:50:29.019Z,2.5
2019-02-10T15:04:56.995Z,5
2019-02-10T15:20:24.755Z,4.4
2019-02-10T15:34:53.198Z,3.9
2019-02-10T15:50:34.343Z,3.6
2019-02-10T16:05:39.566Z,3.2
2019-02-10T16:20:14.653Z,3.3
2019-02-10T16:35:32.356Z,2.9
2019-02-10T16:50:31.157Z,3
2019-02-10T17:05:36.569Z,2.9
2019-02-10T17:20:32.938Z,2.7
2019-02-10T17:35:44.642Z,2.3
2019-02-10T17:50:49.634Z,2.4
2019-02-10T18:05:52.513Z,2.2
2019-02-10T18:20:47.440Z,2.7
2019-02-10T18:35:59.916Z,2.1
2019-02-10T18:50:23.022Z,2.1
2019-02-10T19:05:30.388Z,2
2019-02-10T19:20:19.228Z,2.4
2019-02-10T19:35:16.865Z,2
2019-02-10T19:50:57.020Z,2.1
2019-02-10T20:06:02.456Z,2.1
2019-02-10T20:20:15.595Z,2
2019-02-10T20:35:28.596Z,2.1
2019-02-10T20:50:26.085Z,1.7
2019-02-10T21:05:16.214Z,1.5
2019-02-10T21:20:20.755Z,1.5
2019-02-10T21:35:20.100Z,1.5
2019-02-10T21:50:15.090Z,1.5
2019-02-10T22:05:37.062Z,1.6
2019-02-10T22:20:53.470Z,2.2
2019-02-10T22:36:08.287Z,2.5
2019-02-10T22:50:28.026Z,2.5
2019-02-10T23:05:58.752Z,2.6
2019-02-10T23:21:17.809Z,2.7
2019-02-10T23:35:51.526Z,3
2019-02-10T23:51:16.999Z,2.6
